Time;durP1;ratioP1;P1;durP2;ratioP2;P2;SDS_P1;SDS_P2;PMS_P1;PMS_P2;Temp;Humidity;BMP_temperature;BMP_pressure;BME280_temperature;BME280_humidity;BME280_pressure;Samples;Min_cycle;Max_cycle;Signal;HPM_P1;HPM_P2
2022/02/09 00:04:20;;;;;;;34.42;15.68;;;;;;;-6.44;66.50;99678.41;4971572;28;20057;-84
2022/02/09 00:09:22;;;;;;;37.42;16.73;;;;;;;-6.27;66.68;99689.56;4956521;28;20083;-85
2022/02/09 00:12:00;;;;;;;35.28;16.50;;;;;;;-6.38;66.33;99683.56;4939418;29;20490;-84
2022/02/09 00:28:12;;;;;;;35.10;15.85;;;;;;;-6.47;67.46;99699.22;4941800;29;20471;-84
2022/02/09 01:57:00;;;;;;;32.60;14.85;;;;;;;-6.53;68.04;99749.53;4958240;28;20047;-84
2022/02/09 01:59:27;;;;;;;34.88;14.82;;;;;;;-6.46;67.78;99747.78;4939237;29;20051;-84
2022/02/09 02:01:53;;;;;;;29.15;13.90;;;;;;;-6.48;67.43;99747.75;4956520;29;20054;-85
2022/02/09 02:04:24;;;;;;;32.22;13.90;;;;;;;-6.62;67.63;99740.06;4971399;28;20411;-84
2022/02/09 02:06:52;;;;;;;27.98;12.25;;;;;;;-6.55;67.61;99760.81;4941518;29;20078;-83
2022/02/09 02:09:18;;;;;;;29.05;13.52;;;;;;;-6.64;67.70;99766.91;4940201;29;20042;-84
2022/02/09 02:11:58;;;;;;;35.72;12.75;;;;;;;-6.64;67.74;99756.53;4964808;29;20134;-83
2022/02/09 02:14:40;;;;;;;32.08;12.73;;;;;;;-6.76;67.66;99765.22;4955398;29;20039;-83
2022/02/09 02:19:39;;;;;;;24.77;12.07;;;;;;;-6.98;67.69;99763.56;4969770;29;20055;-83
2022/02/09 02:28:19;;;;;;;28.77;13.02;;;;;;;-7.16;68.24;99773.13;4955488;29;20070;-83
2022/02/09 02:31:38;;;;;;;29.38;12.38;;;;;;;-7.19;68.24;99783.50;4957145;29;20043;-82
2022/02/09 02:44:54;;;;;;;31.90;13.67;;;;;;;-7.36;68.13;99774.88;4957331;29;20051;-83
2022/02/09 02:47:30;;;;;;;29.15;13.30;;;;;;;-7.35;68.05;99785.25;4944977;29;20047;-83
2022/02/09 02:58:26;;;;;;;27.48;12.35;;;;;;;-7.28;68.20;99788.72;4965647;29;20043;-84
2022/02/09 03:14:19;;;;;;;28.95;14.07;;;;;;;-7.38;68.03;99803.44;4973128;28;20047;-85
2022/02/09 03:16:58;;;;;;;34.60;14.57;;;;;;;-7.41;68.12;99800.88;4941765;29;20055;-86
2022/02/09 03:46:48;;;;;;;36.38;14.73;;;;;;;-7.39;68.09;99816.44;4966599;28;20043;-85
2022/02/09 03:51:52;;;;;;;37.10;16.23;;;;;;;-7.38;67.44;99820.75;4977462;28;20101;-83
2022/02/09 03:59:13;;;;;;;38.67;16.00;;;;;;;-7.43;67.50;99831.16;4975705;28;20414;-81
2022/02/09 04:01:41;;;;;;;40.70;17.67;;;;;;;-7.40;67.53;99825.09;4975303;28;20479;-84
2022/02/09 04:04:07;;;;;;;35.60;16.58;;;;;;;-7.27;67.66;99832.00;4922189;28;20106;-83
2022/02/09 04:06:36;;;;;;;35.03;16.42;;;;;;;-7.17;67.49;99848.47;4944936;29;20194;-88
2022/02/09 04:09:05;;;;;;;34.37;14.37;;;;;;;-7.18;67.54;99831.16;4958815;28;20059;-83
2022/02/09 04:11:37;;;;;;;35.95;16.08;;;;;;;-7.06;67.39;99846.72;4908337;29;20094;-84
2022/02/09 04:14:25;;;;;;;32.88;13.70;;;;;;;-7.04;66.92;99847.56;4956820;29;20043;-84
2022/02/09 04:17:01;;;;;;;37.03;16.30;;;;;;;-7.11;67.04;99851.94;4955062;29;20174;-84
2022/02/09 04:36:16;;;;;;;37.40;16.25;;;;;;;-6.91;66.33;99848.44;4939007;29;20233;-85
2022/02/09 04:41:33;;;;;;;38.97;16.98;;;;;;;-6.76;66.78;99855.34;4938799;28;20094;-86
2022/02/09 04:49:12;;;;;;;40.15;13.98;;;;;;;-6.75;65.89;99851.88;4956267;28;20153;-84
2022/02/09 04:52:02;;;;;;;61.55;21.05;;;;;;;-6.63;66.01;99857.91;4960339;28;20442;-82
2022/02/09 04:54:46;;;;;;;60.38;19.95;;;;;;;-6.60;65.69;99826.69;4942374;29;20046;-82
2022/02/09 04:57:26;;;;;;;37.10;17.63;;;;;;;-6.33;65.93;99861.28;4937726;29;20039;-83
2022/02/09 05:00:12;;;;;;;36.80;16.75;;;;;;;-6.24;65.26;99844.75;4955965;28;20047;-83
2022/02/09 05:26:26;;;;;;;33.10;16.20;;;;;;;-5.17;62.19;99876.22;4938991;28;20043;-86
2022/02/09 05:28:52;;;;;;;48.25;19.08;;;;;;;-5.07;61.50;99876.16;4938994;29;20078;-89
2022/02/09 05:31:18;;;;;;;41.90;19.92;;;;;;;-5.21;61.81;99858.88;4955071;29;20046;-85
2022/02/09 05:33:47;;;;;;;43.72;19.10;;;;;;;-5.11;61.82;99875.31;4939236;28;20078;-88
2022/02/09 05:36:13;;;;;;;43.50;18.98;;;;;;;-5.05;61.71;99875.25;4970328;28;20053;-88
2022/02/09 05:38:39;;;;;;;43.38;18.75;;;;;;;-4.97;61.65;99878.66;4954910;29;20058;-84
2022/02/09 05:41:05;;;;;;;42.67;17.50;;;;;;;-4.94;61.58;99880.38;4921916;29;20462;-84
2022/02/09 05:43:31;;;;;;;44.53;19.27;;;;;;;-4.93;61.07;99889.91;4938506;29;20057;-86
2022/02/09 05:46:25;;;;;;;37.15;16.95;;;;;;;-4.83;61.22;99894.19;4954495;29;20039;-83
2022/02/09 05:51:30;;;;;;;43.22;19.20;;;;;;;-4.58;61.14;99888.75;4955686;29;20050;-82
2022/02/09 05:56:46;;;;;;;42.40;19.58;;;;;;;-4.50;60.52;99881.72;4942594;29;20058;-83
2022/02/09 05:59:27;;;;;;;36.38;15.20;;;;;;;-4.38;59.98;99884.19;4926482;29;20511;-88
2022/02/09 06:01:53;;;;;;;31.40;14.98;;;;;;;-4.13;59.63;99895.22;4958798;28;20050;-82
2022/02/09 06:04:19;;;;;;;31.90;13.60;;;;;;;-3.93;59.28;99898.44;4976127;28;20483;-83
2022/02/09 06:06:45;;;;;;;30.40;13.38;;;;;;;-3.79;58.55;99884.34;4927692;29;20051;-87
2022/02/09 06:09:11;;;;;;;28.17;12.32;;;;;;;-3.78;57.98;99902.59;4939731;29;20055;-82
2022/02/09 06:22:01;;;;;;;23.17;10.65;;;;;;;-3.21;57.00;99905.28;4943489;29;20039;-86
2022/02/09 06:24:27;;;;;;;23.27;11.40;;;;;;;-3.22;56.48;99903.56;4941356;28;20515;-83
2022/02/09 06:26:53;;;;;;;28.60;11.05;;;;;;;-3.46;56.57;99903.91;4957411;28;20178;-79
2022/02/09 06:29:19;;;;;;;24.63;10.85;;;;;;;-3.48;57.25;99905.69;4956893;29;20050;-82
2022/02/09 06:31:47;;;;;;;18.90;9.50;;;;;;;-3.67;56.77;99905.94;4924570;29;20051;-82
2022/02/09 06:34:15;;;;;;;19.27;9.15;;;;;;;-3.89;57.68;99920.16;4925558;29;20039;-87
2022/02/09 06:36:46;;;;;;;27.57;10.93;;;;;;;-3.77;58.17;99917.38;4943983;29;20046;-88
2022/02/09 06:39:13;;;;;;;21.67;11.10;;;;;;;-3.59;57.90;99918.03;4963156;28;20050;-86
2022/02/09 06:41:41;;;;;;;22.83;10.48;;;;;;;-3.41;58.47;99923.03;4977002;28;20041;-84
2022/02/09 06:44:07;;;;;;;18.00;10.10;;;;;;;-3.41;57.05;99923.03;4972589;28;20067;-85
2022/02/09 06:46:36;;;;;;;25.65;9.25;;;;;;;-3.36;57.60;99912.50;4940958;29;20043;-82
2022/02/09 06:49:07;;;;;;;21.40;9.80;;;;;;;-3.48;57.53;99910.91;4909547;29;20059;-85
2022/02/09 06:51:38;;;;;;;17.40;9.02;;;;;;;-3.26;56.98;99912.34;4941416;29;20039;-90
2022/02/09 06:54:13;;;;;;;21.38;10.63;;;;;;;-3.03;56.86;99916.34;4944440;29;20507;-90
2022/02/09 06:56:58;;;;;;;18.45;8.85;;;;;;;-2.81;55.74;99909.03;4936286;29;20043;-93
2022/02/09 06:59:29;;;;;;;20.33;9.57;;;;;;;-2.83;55.22;99910.78;4951784;29;20047;-91
2022/02/09 07:02:04;;;;;;;23.13;10.23;;;;;;;-2.79;55.54;99909.84;4923239;29;20047;-92
2022/02/09 07:04:39;;;;;;;26.63;10.20;;;;;;;-2.59;55.61;99920.00;4957403;29;20043;-92
2022/02/09 07:07:08;;;;;;;22.27;10.75;;;;;;;-2.28;54.70;99913.31;4963566;29;20054;-88
2022/02/09 07:09:35;;;;;;;28.67;10.63;;;;;;;-2.44;55.59;99919.72;4960747;29;20051;-91
2022/02/09 07:12:02;;;;;;;22.83;11.88;;;;;;;-2.42;54.82;99907.47;4944047;28;20047;-93
2022/02/09 07:14:29;;;;;;;21.90;11.13;;;;;;;-2.30;54.92;99924.69;4945637;29;20071;-92
2022/02/09 07:16:56;;;;;;;21.20;11.00;;;;;;;-2.28;54.67;99920.31;4945684;28;20418;-91
2022/02/09 07:19:22;;;;;;;21.63;10.40;;;;;;;-2.11;54.72;99917.34;4961909;28;20047;-91
2022/02/09 07:21:49;;;;;;;18.58;10.13;;;;;;;-2.28;54.52;99941.25;4939634;29;20050;-89
2022/02/09 07:24:18;;;;;;;22.23;9.93;;;;;;;-2.07;54.59;99924.25;4956003;29;20107;-91
2022/02/09 07:29:10;;;;;;;21.95;10.77;;;;;;;-2.26;53.73;99926.38;4980865;28;20027;-89
2022/02/09 07:31:36;;;;;;;25.17;11.63;;;;;;;-2.38;54.22;99934.44;5016768;23;20057;-89
2022/02/09 07:34:02;;;;;;;26.17;11.23;;;;;;;-2.33;54.72;99923.03;4992873;28;20042;-90
2022/02/09 07:36:31;;;;;;;22.15;10.95;;;;;;;-2.25;54.43;99936.81;5009032;28;20057;-90
2022/02/09 07:38:58;;;;;;;23.58;10.50;;;;;;;-2.08;54.53;99933.88;4992167;28;20038;-92
2022/02/09 07:41:24;;;;;;;23.67;10.45;;;;;;;-2.05;54.11;99928.59;4973150;28;20103;-89
2022/02/09 07:51:41;;;;;;;30.27;13.93;;;;;;;-1.11;52.56;99924.84;4995599;28;20115;-93
2022/02/09 07:54:08;;;;;;;35.05;15.35;;;;;;;-1.13;52.68;99923.13;4973036;28;20049;-90
2022/02/09 07:56:39;;;;;;;39.72;15.40;;;;;;;-1.38;52.06;99928.97;4991098;28;20124;-96
2022/02/09 07:59:06;;;;;;;45.72;18.55;;;;;;;-1.42;52.11;99937.78;4939493;28;20070;-94
2022/02/09 08:01:32;;;;;;;40.92;16.58;;;;;;;-1.79;52.85;99930.69;4990179;28;20038;-93
2022/02/09 08:03:59;;;;;;;41.80;18.05;;;;;;;-2.02;53.54;99948.63;4963999;28;20065;-94
2022/02/09 08:06:25;;;;;;;41.53;18.35;;;;;;;-1.97;53.47;99954.63;4975421;28;20644;-92
2022/02/09 08:09:00;;;;;;;50.20;19.00;;;;;;;-1.92;54.54;99944.91;4992555;28;20101;-92
2022/02/09 08:11:33;;;;;;;41.33;17.75;;;;;;;-1.76;54.13;99938.50;4964896;28;20078;-94
2022/02/09 08:30:03;;;;;;;32.20;11.00;;;;;;;-1.70;53.57;99955.84;4957165;28;20037;-89
2022/02/09 08:34:56;;;;;;;38.28;17.27;;;;;;;-1.58;54.03;99955.63;4976949;28;20050;-89
2022/02/09 08:37:23;;;;;;;41.75;18.30;;;;;;;-1.67;53.75;99949.69;4944174;28;20047;-88
2022/02/09 08:39:52;;;;;;;44.10;17.63;;;;;;;-1.53;54.08;99956.38;4944280;28;20038;-88
2022/02/09 08:42:19;;;;;;;37.72;17.25;;;;;;;-1.27;53.73;99953.19;4946162;28;20134;-90
2022/02/09 08:44:45;;;;;;;36.65;16.77;;;;;;;-1.40;53.77;99951.72;4932424;28;20038;-91
2022/02/09 08:47:12;;;;;;;36.78;15.93;;;;;;;-1.24;53.23;99961.00;4930882;28;20050;-93
2022/02/09 08:49:38;;;;;;;37.08;15.07;;;;;;;-1.35;53.81;99949.00;4951974;28;20061;-94
2022/02/09 08:52:04;;;;;;;31.63;13.40;;;;;;;-1.43;53.51;99969.25;4964235;28;20050;-93
2022/02/09 08:54:30;;;;;;;32.60;13.98;;;;;;;-1.47;54.07;99976.34;4976845;28;20093;-94
2022/02/09 08:56:58;;;;;;;26.30;11.70;;;;;;;-1.28;53.64;99985.56;4963671;28;20039;-90
2022/02/09 08:59:29;;;;;;;29.80;13.38;;;;;;;-1.38;54.10;99986.66;4931211;28;20134;-91
2022/02/09 09:02:02;;;;;;;29.08;13.05;;;;;;;-1.03;54.11;99974.50;4946425;28;20098;-92
2022/02/09 09:04:33;;;;;;;26.20;12.77;;;;;;;-0.94;53.51;99984.81;4950792;28;20043;-91
2022/02/09 09:07:05;;;;;;;24.70;12.43;;;;;;;-0.89;53.40;99976.84;4962941;28;20047;-90
2022/02/09 09:09:52;;;;;;;26.75;12.27;;;;;;;-0.79;52.91;99962.56;5035678;23;20157;-93
2022/02/09 09:18:28;;;;;;;26.63;13.02;;;;;;;-0.64;53.57;99980.59;4978150;28;20096;-85
2022/02/09 09:41:31;;;;;;;23.92;10.32;;;;;;;-0.70;53.00;99993.88;4983750;28;20035;-80
2022/02/09 10:05:50;;;;;;;25.02;12.00;;;;;;;-1.04;54.91;100004.28;4966933;28;20057;-90
2022/02/09 10:31:00;;;;;;;26.70;11.55;;;;;;;-1.27;55.66;100012.66;4995240;28;20050;-91
2022/02/09 10:34:14;;;;;;;25.55;12.13;;;;;;;-0.65;55.82;100023.50;4994804;28;20101;-94
2022/02/09 10:36:47;;;;;;;28.08;12.48;;;;;;;-0.69;54.58;100018.34;4963939;28;20502;-92
2022/02/09 10:39:17;;;;;;;27.63;12.48;;;;;;;-0.87;55.54;100023.13;4980397;28;20042;-89
2022/02/09 10:42:13;;;;;;;27.52;12.00;;;;;;;-0.66;54.81;100021.78;5002269;28;20042;-93
2022/02/09 10:44:47;;;;;;;27.83;12.55;;;;;;;-0.25;54.42;100031.28;4980115;28;20050;-94
2022/02/09 10:47:23;;;;;;;28.35;12.95;;;;;;;-0.26;53.17;100032.19;4959303;28;20108;-88
2022/02/09 10:50:24;;;;;;;29.92;12.95;;;;;;;-0.28;53.31;100028.72;5001696;28;20046;-92
2022/02/09 10:52:51;;;;;;;27.33;12.38;;;;;;;-0.50;53.55;100038.03;4973213;28;20046;-89
2022/02/09 10:55:39;;;;;;;32.80;13.50;;;;;;;-0.69;54.20;100034.09;4994556;28;20054;-88
2022/02/09 10:58:16;;;;;;;32.75;15.45;;;;;;;-0.83;54.45;100027.44;4980283;28;20053;-92
2022/02/09 11:00:44;;;;;;;36.55;15.60;;;;;;;-0.85;55.13;100037.09;4970036;28;20134;-90
2022/02/09 11:03:14;;;;;;;31.38;14.48;;;;;;;-0.99;55.60;100041.78;4984251;28;20057;-89
2022/02/09 11:05:48;;;;;;;36.67;15.48;;;;;;;-0.80;55.22;100045.72;4977933;28;20513;-88
2022/02/09 11:08:14;;;;;;;29.98;14.85;;;;;;;-0.83;55.40;100040.56;4954337;28;20042;-89
2022/02/09 11:10:40;;;;;;;38.47;16.15;;;;;;;-0.88;54.64;100045.03;5001259;28;20100;-89
2022/02/09 11:13:09;;;;;;;33.35;15.30;;;;;;;-1.05;55.28;100048.03;4998464;28;20133;-91
2022/02/09 11:15:36;;;;;;;31.17;13.77;;;;;;;-1.53;55.65;100042.03;4981584;28;20046;-87
2022/02/09 11:18:02;;;;;;;35.47;14.45;;;;;;;-1.69;56.09;100043.19;4964240;28;20050;-88
2022/02/09 11:20:31;;;;;;;32.38;13.75;;;;;;;-1.95;56.92;100039.31;4980513;28;20506;-88
2022/02/09 11:22:57;;;;;;;33.80;13.73;;;;;;;-2.12;57.17;100046.59;4981348;28;20129;-92
2022/02/09 11:25:31;;;;;;;31.38;13.88;;;;;;;-2.31;57.92;100052.16;4964225;28;20129;-92
2022/02/09 11:28:28;;;;;;;30.95;12.93;;;;;;;-2.34;58.04;100053.94;4967855;28;20046;-89
2022/02/09 11:31:09;;;;;;;28.02;12.10;;;;;;;-2.34;58.09;100051.31;4948546;28;20524;-89
2022/02/09 11:34:01;;;;;;;34.15;14.35;;;;;;;-2.35;58.11;100065.31;4968913;28;20052;-89
2022/02/09 11:39:11;;;;;;;;;;;;;;;-2.36;58.44;100064.47;5000867;28;20046;-85
2022/02/09 11:41:54;;;;;;;28.88;12.82;;;;;;;-2.47;58.87;100056.78;5002604;28;19984;-92
2022/02/09 11:44:45;;;;;;;26.77;11.60;;;;;;;-2.41;58.81;100076.72;4999793;23;20057;-94
2022/02/09 11:50:56;;;;;;;26.00;10.93;;;;;;;-2.59;58.71;100071.81;4933715;28;20062;-92
2022/02/09 12:10:48;;;;;;;28.10;12.50;;;;;;;-2.93;60.23;100103.69;4935372;28;20041;-87
2022/02/09 12:14:05;;;;;;;28.23;12.85;;;;;;;-2.90;60.63;100111.47;4963724;28;20049;-92
2022/02/09 12:19:25;;;;;;;28.20;12.48;;;;;;;-2.97;60.51;100120.25;4971804;28;20054;-86
2022/02/09 12:21:56;;;;;;;25.95;10.40;;;;;;;-3.06;60.22;100123.88;4948991;28;20058;-90
2022/02/09 12:24:26;;;;;;;30.90;12.35;;;;;;;-3.09;60.74;100131.75;4975812;28;20133;-88
2022/02/09 12:27:05;;;;;;;26.75;11.98;;;;;;;-3.10;60.70;100126.53;4959778;28;20054;-89
2022/02/09 12:29:38;;;;;;;26.58;11.13;;;;;;;-3.13;61.01;100132.66;4943771;28;20062;-88
2022/02/09 12:32:17;;;;;;;26.10;11.43;;;;;;;-3.23;61.46;100131.94;4943305;28;20501;-90
2022/02/09 12:34:52;;;;;;;23.90;10.90;;;;;;;-3.28;61.44;100136.31;4959523;28;20054;-86
2022/02/09 12:37:19;;;;;;;24.23;10.30;;;;;;;-3.35;62.02;100147.72;4974894;28;20065;-88
2022/02/09 12:39:55;;;;;;;22.33;9.70;;;;;;;-3.41;61.83;100153.03;4926661;28;20046;-87
2022/02/09 12:42:22;;;;;;;25.35;11.60;;;;;;;-3.56;61.97;100147.97;4959302;28;20051;-89
2022/02/09 12:45:05;;;;;;;26.55;11.40;;;;;;;-3.57;62.26;100156.66;4975016;28;20150;-90
2022/02/09 12:47:31;;;;;;;24.98;11.05;;;;;;;-3.71;62.86;100157.69;4928459;28;20081;-91
2022/02/09 12:49:58;;;;;;;24.65;11.25;;;;;;;-3.78;63.02;100158.59;4944416;28;20043;-93
2022/02/09 12:52:30;;;;;;;22.48;10.75;;;;;;;-3.84;63.09;100169.09;4927200;28;20443;-93
2022/02/09 12:55:05;;;;;;;22.02;9.95;;;;;;;-3.90;63.59;100161.34;4929723;28;20054;-95
2022/02/09 12:57:40;;;;;;;23.88;11.50;;;;;;;-3.94;63.38;100167.47;4961945;28;20046;-92
2022/02/09 13:00:08;;;;;;;23.55;11.10;;;;;;;-3.95;63.49;100168.31;4931109;28;20050;-92
2022/02/09 13:02:44;;;;;;;24.50;10.18;;;;;;;-4.02;63.92;100180.59;4967870;28;20050;-94
2022/02/09 13:05:11;;;;;;;15.57;8.07;;;;;;;-4.09;64.48;100178.03;4952047;28;20043;-92
2022/02/09 13:07:37;;;;;;;22.30;10.68;;;;;;;-4.08;64.28;100179.75;4979217;28;20469;-91
2022/02/09 13:10:04;;;;;;;19.10;9.60;;;;;;;-4.13;64.24;100177.19;4942878;28;20442;-88
2022/02/09 13:12:32;;;;;;;19.55;8.85;;;;;;;-4.11;64.38;100179.75;4942631;28;20054;-89
2022/02/09 13:15:15;;;;;;;19.80;9.38;;;;;;;-4.30;64.87;100184.25;4914578;28;20053;-87
2022/02/09 13:23:29;;;;;;;22.83;10.10;;;;;;;-4.17;65.13;100197.22;4967883;28;20047;-88
2022/02/09 14:11:11;;;;;;;17.70;9.13;;;;;;;-4.06;64.85;100251.09;4942193;28;20140;-93
2022/02/09 14:34:02;;;;;;;27.25;10.80;;;;;;;-3.95;65.12;100280.63;4933370;28;20039;-86
2022/02/09 14:52:06;;;;;;;24.05;9.43;;;;;;;-3.94;65.51;100300.66;4976273;28;20054;-85
2022/02/09 14:54:58;;;;;;;21.45;10.38;;;;;;;-3.89;65.11;100296.25;4975727;28;20073;-82
2022/02/09 14:57:24;;;;;;;26.05;10.18;;;;;;;-3.96;65.03;100287.59;4953312;28;20101;-86
2022/02/09 15:10:19;;;;;;;24.87;10.30;;;;;;;-3.78;64.85;100304.91;4931092;28;20046;-85
2022/02/09 15:23:12;;;;;;;18.92;10.98;;;;;;;-3.99;65.62;100311.09;4956407;28;20569;-85
2022/02/09 15:25:38;;;;;;;22.90;10.00;;;;;;;-3.92;65.48;100314.56;4947269;28;20094;-87
2022/02/09 15:28:06;;;;;;;26.13;10.57;;;;;;;-3.92;65.28;100317.16;4912353;28;20047;-83
2022/02/09 15:30:46;;;;;;;26.60;11.07;;;;;;;-3.87;65.39;100325.88;4927794;28;20137;-86
2022/02/09 15:33:13;;;;;;;21.40;9.90;;;;;;;-3.93;65.50;100308.47;4931547;28;20035;-84
2022/02/09 15:35:42;;;;;;;21.60;9.73;;;;;;;-3.78;65.45;100314.50;4944415;28;20059;-87
2022/02/09 15:38:14;;;;;;;23.20;10.45;;;;;;;-3.76;65.13;100312.72;4960120;28;20053;-87
2022/02/09 15:59:36;;;;;;;23.00;10.57;;;;;;;-3.72;66.19;100320.56;4944021;28;20047;-85
2022/02/09 16:24:44;;;;;;;27.20;10.93;;;;;;;-4.06;65.71;100308.53;4920117;29;20540;-85
2022/02/09 16:38:52;;;;;;;25.80;11.85;;;;;;;-3.75;65.15;100320.56;4897894;29;20052;-85
2022/02/09 16:46:56;;;;;;;21.73;10.93;;;;;;;-3.92;65.93;100309.34;4956266;28;20585;-85
2022/02/09 16:49:49;;;;;;;24.17;10.82;;;;;;;-3.82;65.50;100308.41;4914583;28;20050;-86
2022/02/09 16:52:33;;;;;;;27.45;11.52;;;;;;;-3.76;65.79;100323.16;4944435;28;20073;-85
2022/02/09 17:20:02;;;;;;;31.08;11.93;;;;;;;-3.75;65.73;100304.88;4955512;28;20038;-86
2022/02/09 17:22:30;;;;;;;27.67;12.68;;;;;;;-3.63;65.92;100308.28;4933594;28;20054;-85
2022/02/09 17:24:58;;;;;;;28.75;13.52;;;;;;;-3.53;65.60;100312.59;4949217;28;20459;-86
2022/02/09 17:27:30;;;;;;;33.75;13.82;;;;;;;-3.43;65.23;100324.69;4961433;28;20043;-86
2022/02/09 17:33:00;;;;;;;30.33;13.27;;;;;;;-3.46;65.22;100302.06;4947314;28;20144;-85
2022/02/09 17:35:43;;;;;;;29.98;12.18;;;;;;;-3.24;65.08;100328.88;4948744;28;20054;-84
2022/02/09 17:38:35;;;;;;;25.67;11.90;;;;;;;-3.28;64.41;100328.94;4921682;28;20129;-84
2022/02/09 17:57:45;;;;;;;24.90;10.43;;;;;;;-3.70;65.30;100308.31;4950957;28;20066;-86
2022/02/09 18:00:16;;;;;;;27.13;11.50;;;;;;;-3.45;64.70;100332.56;4937670;28;20578;-87
2022/02/09 18:03:02;;;;;;;27.50;11.48;;;;;;;-3.44;65.15;100331.66;4942885;28;20067;-85
2022/02/09 18:05:44;;;;;;;27.05;11.75;;;;;;;-3.44;65.03;100330.81;4935134;28;20081;-86
2022/02/09 18:08:40;;;;;;;29.33;11.32;;;;;;;-3.52;65.11;100322.16;4916361;29;20059;-87
2022/02/09 18:11:32;;;;;;;25.97;10.90;;;;;;;-3.58;64.78;100322.19;4916482;28;20469;-85
2022/02/09 18:31:08;;;;;;;19.73;8.23;;;;;;;-4.06;66.07;100324.19;4934993;29;20052;-84
2022/02/09 18:43:23;;;;;;;23.10;10.60;;;;;;;-3.82;66.06;100337.16;4923048;29;20452;-86
2022/02/09 18:49:10;;;;;;;21.17;10.55;;;;;;;-4.08;66.00;100310.31;4939733;29;20050;-86
2022/02/09 18:57:52;;;;;;;23.75;9.50;;;;;;;-3.77;65.92;100329.28;4928598;29;20322;-84
2022/02/09 19:00:06;;;;;;;;;;;;;;;-3.72;65.47;100338.84;4932779;29;20138;-84
2022/02/09 19:05:17;;;;;;;20.85;9.68;;;;;;;-3.75;65.58;100344.06;5004320;28;20636;-83
2022/02/09 19:19:03;;;;;;;18.58;9.10;;;;;;;-3.60;64.78;100345.72;5013129;28;20444;-87
2022/02/09 19:26:58;;;;;;;17.25;8.82;;;;;;;-3.67;64.78;100337.06;4955058;28;20054;-86
2022/02/09 19:48:21;;;;;;;26.90;9.90;;;;;;;-3.96;64.93;100336.34;4981203;28;20042;-85
2022/02/09 19:53:43;;;;;;;22.58;9.18;;;;;;;-3.81;64.88;100336.25;4981434;28;20050;-85
2022/02/09 19:56:13;;;;;;;16.20;7.40;;;;;;;-3.80;64.43;100337.13;4994817;28;20050;-85
2022/02/09 20:01:38;;;;;;;19.75;8.15;;;;;;;-3.82;64.31;100342.38;4983765;28;20443;-86
2022/02/09 20:04:05;;;;;;;19.50;7.65;;;;;;;-3.94;64.76;100335.47;4962996;28;20124;-86
2022/02/09 20:06:32;;;;;;;16.95;7.85;;;;;;;-4.02;64.54;100339.00;4979111;28;20137;-87
2022/02/09 20:08:58;;;;;;;17.10;8.35;;;;;;;-3.95;64.38;100349.41;5009811;28;20051;-86
2022/02/09 20:11:24;;;;;;;17.25;7.40;;;;;;;-3.96;64.50;100341.56;4964216;28;20110;-87
2022/02/09 20:13:52;;;;;;;15.75;7.75;;;;;;;-3.95;64.61;100340.69;4965997;28;20069;-85
2022/02/09 20:16:20;;;;;;;17.40;7.30;;;;;;;-4.10;64.36;100332.94;5014101;28;20042;-84
2022/02/09 20:18:46;;;;;;;16.73;7.95;;;;;;;-4.08;64.39;100336.41;4959294;28;20413;-85
2022/02/09 20:21:12;;;;;;;16.48;7.03;;;;;;;-4.06;64.59;100334.66;4964049;28;20502;-85
2022/02/09 20:23:39;;;;;;;17.15;6.70;;;;;;;-4.00;64.35;100345.06;4995401;28;20125;-85
2022/02/09 20:26:08;;;;;;;14.15;6.60;;;;;;;-3.90;64.40;100344.16;4947452;28;20065;-85
2022/02/09 20:28:37;;;;;;;13.88;6.85;;;;;;;-3.90;64.12;100338.94;4947421;28;20423;-85
2022/02/09 20:31:08;;;;;;;13.32;6.43;;;;;;;-3.86;64.23;100342.41;4947383;28;20370;-85
2022/02/09 20:33:40;;;;;;;12.20;5.93;;;;;;;-3.83;64.07;100338.03;4979604;28;20034;-86
2022/02/09 20:36:08;;;;;;;13.27;6.65;;;;;;;-3.82;64.05;100344.13;4963601;28;20046;-84
2022/02/09 20:38:35;;;;;;;11.45;5.95;;;;;;;-3.98;64.11;100349.44;4994903;28;20050;-85
2022/02/09 20:41:06;;;;;;;16.65;7.65;;;;;;;-3.91;64.55;100347.66;4978164;28;20038;-85
2022/02/09 20:43:39;;;;;;;14.23;6.05;;;;;;;-3.98;63.98;100338.13;5005432;28;20045;-85
2022/02/09 20:46:06;;;;;;;18.33;7.20;;;;;;;-3.97;64.01;100352.91;4995329;28;20082;-84
2022/02/09 20:48:32;;;;;;;13.45;6.50;;;;;;;-3.88;64.41;100360.69;4971339;28;20096;-86
2022/02/09 20:51:01;;;;;;;13.32;5.70;;;;;;;-3.87;63.66;100361.53;4979778;28;20074;-85
2022/02/09 20:53:27;;;;;;;13.23;6.53;;;;;;;-3.94;64.14;100355.50;4993704;28;20136;-85
2022/02/09 20:55:53;;;;;;;11.80;6.53;;;;;;;-4.01;63.67;100356.41;4994566;28;20467;-85
2022/02/09 20:58:20;;;;;;;15.85;7.03;;;;;;;-4.04;64.06;100359.03;4993723;28;20046;-86
2022/02/09 21:00:53;;;;;;;14.98;6.93;;;;;;;-3.97;64.14;100353.78;4977823;28;20065;-85
2022/02/09 21:08:48;;;;;;;14.63;6.40;;;;;;;-3.76;63.81;100354.53;4977403;28;20508;-84
2022/02/09 21:11:22;;;;;;;16.40;6.22;;;;;;;-3.75;63.65;100346.69;4993845;28;20053;-85
2022/02/09 21:16:44;;;;;;;16.75;6.85;;;;;;;-3.72;63.78;100341.44;4977517;28;20061;-84
2022/02/09 21:20:04;;;;;;;22.63;6.75;;;;;;;-3.75;63.35;100325.78;4968330;28;20046;-85
2022/02/09 21:33:27;;;;;;;17.67;6.93;;;;;;;-3.79;63.17;100342.38;4993332;28;20437;-84
2022/02/09 21:57:50;;;;;;;16.17;7.40;;;;;;;-3.75;62.53;100320.56;4993122;28;20061;-84
2022/02/09 22:00:30;;;;;;;13.90;7.47;;;;;;;-3.78;62.23;100325.81;4994090;28;20413;-86
2022/02/09 22:25:38;;;;;;;18.33;7.95;;;;;;;-3.70;62.07;100323.13;4970855;28;20050;-87
2022/02/09 22:27:34;;;;;;;15.85;7.20;;;;;;;-3.72;62.13;100309.22;4971769;28;20138;-85
2022/02/09 22:57:12;;;;;;;16.17;7.93;;;;;;;-3.73;62.75;100324.00;4860373;29;20448;-86
2022/02/09 22:59:47;;;;;;;17.55;8.48;;;;;;;-3.81;62.58;100323.19;4892453;29;20060;-86
2022/02/09 23:02:24;;;;;;;15.13;8.30;;;;;;;-3.79;62.76;100318.84;4960027;28;20144;-86
2022/02/09 23:07:39;;;;;;;17.17;9.40;;;;;;;-3.77;62.48;100311.84;4980503;28;20042;-87
2022/02/09 23:10:48;;;;;;;18.67;8.48;;;;;;;-3.71;62.50;100314.44;4995762;28;20050;-86
2022/02/09 23:13:02;;;;;;;19.98;9.20;;;;;;;-3.64;62.91;100307.44;4979280;28;20050;-86
